createdAt,value
2022-08-28T00:01:03.350Z,68.43
2022-08-28T00:05:55.125Z,68.51
2022-08-28T00:10:46.925Z,69.35
2022-08-28T00:15:39.186Z,70.02
2022-08-28T00:20:32.320Z,70.52
2022-08-28T00:25:27.131Z,70.87
2022-08-28T00:30:29.888Z,71.21
2022-08-28T00:35:23.781Z,72.18
2022-08-28T00:40:19.982Z,72.54
2022-08-28T00:45:22.888Z,73.29
2022-08-28T00:50:18.821Z,73.43
2022-08-28T00:55:14.236Z,74.01
2022-08-28T01:00:08.669Z,74.55
2022-08-28T01:05:00.590Z,74.59
2022-08-28T01:09:54.921Z,75.75
2022-08-28T01:14:49.183Z,75.16
2022-08-28T01:19:45.553Z,75.85
2022-08-28T01:24:39.433Z,76.42
2022-08-28T01:29:31.174Z,76.76
2022-08-28T01:34:22.814Z,77.59
2022-08-28T01:39:21.283Z,77.79
2022-08-28T01:44:15.301Z,78.48
2022-08-28T01:49:12.050Z,79.02
2022-08-28T01:54:03.758Z,78.69
2022-08-28T01:58:55.493Z,79.75
2022-08-28T02:03:47.473Z,79.80
2022-08-28T02:08:39.166Z,79.90
2022-08-28T02:13:30.969Z,80.47
2022-08-28T02:18:22.878Z,80.74
2022-08-28T02:23:14.814Z,80.77
2022-08-28T02:28:06.603Z,81.42
2022-08-28T02:32:58.580Z,81.68
2022-08-28T02:37:51.486Z,82.07
2022-08-28T02:42:46.389Z,82.01
2022-08-28T02:47:40.095Z,82.64
2022-08-28T02:52:31.680Z,83.04
2022-08-28T02:57:23.479Z,83.60
2022-08-28T03:02:15.277Z,83.63
2022-08-28T03:07:11.820Z,83.79
2022-08-28T03:12:03.833Z,84.47
2022-08-28T03:16:55.456Z,84.86
2022-08-28T03:21:47.117Z,85.03
2022-08-28T03:26:38.731Z,85.80
2022-08-28T03:31:33.327Z,85.96
2022-08-28T03:36:27.401Z,86.73
2022-08-28T03:41:22.049Z,86.21
2022-08-28T03:46:16.736Z,86.76
2022-08-28T03:51:10.363Z,86.75
2022-08-28T03:56:02.627Z,87.33
2022-08-28T04:00:54.578Z,87.44
2022-08-28T04:05:47.701Z,87.33
2022-08-28T04:10:39.390Z,88.10
2022-08-28T04:15:31.057Z,88.43
2022-08-28T04:20:22.681Z,88.03
2022-08-28T04:25:15.096Z,88.55
2022-08-28T04:30:07.815Z,88.86
2022-08-28T04:35:02.385Z,88.94
2022-08-28T04:39:54.212Z,89.10
2022-08-28T04:44:45.853Z,89.64
2022-08-28T04:49:37.596Z,89.68
2022-08-28T04:54:29.353Z,89.97
2022-08-28T04:59:21.277Z,89.76
2022-08-28T05:04:13.054Z,90.38
2022-08-28T05:09:04.707Z,90.17
2022-08-28T05:13:56.848Z,90.53
2022-08-28T05:18:49.806Z,91.29
2022-08-28T05:23:42.067Z,90.55
2022-08-28T05:28:33.699Z,91.12
2022-08-28T05:33:25.843Z,91.21
2022-08-28T05:38:17.646Z,90.96
2022-08-28T05:43:09.671Z,91.03
2022-08-28T05:48:01.276Z,90.93
2022-08-28T05:52:53.172Z,90.86
2022-08-28T05:57:44.768Z,91.43
2022-08-28T06:02:36.388Z,91.39
2022-08-28T06:07:28.029Z,90.44
2022-08-28T06:12:19.654Z,89.94
2022-08-28T06:17:11.333Z,89.88
2022-08-28T06:22:07.259Z,89.42
2022-08-28T06:26:59.892Z,89.34
2022-08-28T06:32:01.065Z,88.97
2022-08-28T06:36:54.154Z,89.21
2022-08-28T06:41:46.167Z,88.84
2022-08-28T06:46:38.093Z,88.76
2022-08-28T06:51:30.244Z,88.98
2022-08-28T06:56:26.349Z,88.70
2022-08-28T07:01:29.862Z,89.09
2022-08-28T07:06:23.405Z,88.40
2022-08-28T07:11:20.362Z,88.59
2022-08-28T07:16:15.016Z,86.73
2022-08-28T07:21:11.624Z,84.23
2022-08-28T07:26:11.189Z,80.10
2022-08-28T07:31:06.675Z,77.29
2022-08-28T07:35:59.310Z,75.87
2022-08-28T07:40:52.138Z,72.52
2022-08-28T07:45:44.530Z,69.92
2022-08-28T07:50:36.522Z,65.63
2022-08-28T07:55:31.457Z,63.91
2022-08-28T08:00:23.135Z,61.93
2022-08-28T08:05:14.792Z,59.79
2022-08-28T08:10:08.245Z,57.55
2022-08-28T08:15:00.822Z,56.90
2022-08-28T08:19:52.651Z,54.28
2022-08-28T08:24:44.558Z,52.57
2022-08-28T08:29:38.904Z,51.70
2022-08-28T08:34:31.752Z,51.10
2022-08-28T08:39:23.706Z,50.68
2022-08-28T08:44:34.369Z,50.83
2022-08-28T08:49:38.093Z,48.77
2022-08-28T08:54:31.458Z,46.79
2022-08-28T08:59:30.226Z,46.19
2022-08-28T09:04:43.497Z,45.57
2022-08-28T09:09:42.807Z,45.25
2022-08-28T09:15:05.277Z,43.46
2022-08-28T09:19:56.936Z,41.64
2022-08-28T09:24:48.928Z,41.51
2022-08-28T09:29:43.373Z,41.09
2022-08-28T09:34:38.989Z,42.04
2022-08-28T09:39:32.791Z,41.61
2022-08-28T09:44:25.349Z,42.09
2022-08-28T09:49:24.454Z,40.46
2022-08-28T09:54:32.382Z,41.58
2022-08-28T09:59:26.546Z,41.19
2022-08-28T10:04:33.542Z,40.76
2022-08-28T10:09:37.206Z,40.25
2022-08-28T10:14:38.237Z,38.81
2022-08-28T10:19:54.696Z,38.47
2022-08-28T10:25:35.534Z,38.32
2022-08-28T10:30:31.633Z,38.33
2022-08-28T10:35:44.874Z,37.26
2022-08-28T10:41:06.334Z,36.05
2022-08-28T10:46:08.891Z,34.23
2022-08-28T10:51:05.480Z,36.21
2022-08-28T10:56:04.003Z,34.80
2022-08-28T11:01:13.311Z,35.30
2022-08-28T11:06:33.412Z,36.07
2022-08-28T11:11:45.072Z,35.46
2022-08-28T11:16:45.934Z,35.03
2022-08-28T11:22:00.665Z,34.12
2022-08-28T11:27:25.115Z,36.26
2022-08-28T11:32:31.901Z,34.45
2022-08-28T11:37:46.142Z,33.31
2022-08-28T11:42:37.922Z,33.70
2022-08-28T11:47:37.584Z,33.53
2022-08-28T11:52:47.490Z,34.54
2022-08-28T12:02:55.153Z,35.68
2022-08-28T12:07:51.621Z,35.01
2022-08-28T12:12:46.306Z,35.88
2022-08-28T12:17:44.678Z,35.23
2022-08-28T12:22:53.218Z,36.00
2022-08-28T12:27:45.010Z,35.40
2022-08-28T12:32:50.068Z,37.31
2022-08-28T12:37:58.659Z,36.58
2022-08-28T12:43:00.763Z,37.84
2022-08-28T12:47:56.563Z,37.34
2022-08-28T12:52:54.201Z,38.35
2022-08-28T12:57:47.403Z,37.71
2022-08-28T13:02:41.413Z,37.08
2022-08-28T13:07:40.611Z,37.30
2022-08-28T13:12:56.004Z,37.20
2022-08-28T13:17:52.222Z,38.66
2022-08-28T13:22:50.664Z,39.18
2022-08-28T13:27:43.070Z,39.51
2022-08-28T13:32:39.029Z,38.92
2022-08-28T13:37:48.084Z,39.21
2022-08-28T13:42:39.752Z,40.12
2022-08-28T13:47:31.408Z,40.46
2022-08-28T13:52:23.194Z,40.16
2022-08-28T13:57:17.004Z,40.74
2022-08-28T14:02:30.580Z,40.69
2022-08-28T14:07:23.169Z,40.86
2022-08-28T14:12:14.802Z,41.52
2022-08-28T14:17:08.508Z,41.63
2022-08-28T14:22:00.400Z,41.10
2022-08-28T14:26:52.171Z,41.87
2022-08-28T14:31:45.150Z,41.64
2022-08-28T14:36:37.254Z,41.61
2022-08-28T14:41:29.143Z,40.26
2022-08-28T14:46:28.657Z,40.24
2022-08-28T14:51:20.556Z,40.56
2022-08-28T14:56:12.235Z,40.57
2022-08-28T15:01:05.129Z,39.72
2022-08-28T15:06:09.304Z,40.36
2022-08-28T15:11:06.986Z,40.46
2022-08-28T15:16:15.986Z,39.78
2022-08-28T15:21:19.170Z,39.47
2022-08-28T15:26:15.167Z,39.49
2022-08-28T15:31:07.213Z,38.94
2022-08-28T15:35:58.870Z,38.80
2022-08-28T15:41:09.367Z,39.31
2022-08-28T15:46:01.082Z,39.54
2022-08-28T15:50:52.775Z,39.09
2022-08-28T15:55:44.454Z,39.25
2022-08-28T16:00:36.160Z,38.74
2022-08-28T16:05:32.325Z,38.81
2022-08-28T16:10:25.968Z,38.33
2022-08-28T16:15:21.225Z,38.66
2022-08-28T16:20:13.236Z,38.41
2022-08-28T16:25:06.873Z,38.38
2022-08-28T16:29:58.514Z,39.00
2022-08-28T16:34:51.872Z,39.23
2022-08-28T16:39:43.609Z,39.93
2022-08-28T16:44:36.941Z,40.15
2022-08-28T16:49:28.621Z,39.68
2022-08-28T16:54:21.580Z,40.84
2022-08-28T16:59:16.602Z,40.28
2022-08-28T17:04:09.177Z,40.61
2022-08-28T17:09:00.889Z,41.16
2022-08-28T17:13:52.544Z,40.81
2022-08-28T17:18:48.156Z,41.16
2022-08-28T17:23:44.381Z,42.02
2022-08-28T17:28:36.076Z,41.56
2022-08-28T17:33:28.030Z,41.65
2022-08-28T17:38:19.640Z,42.03
2022-08-28T17:43:11.334Z,42.60
2022-08-28T17:48:03.221Z,43.10
2022-08-28T17:52:55.715Z,43.40
2022-08-28T17:57:47.435Z,43.65
2022-08-28T18:02:40.048Z,43.98
2022-08-28T18:07:31.669Z,44.16
2022-08-28T18:12:23.554Z,44.74
2022-08-28T18:17:16.258Z,44.96
2022-08-28T18:22:10.357Z,45.68
2022-08-28T18:27:02.432Z,45.70
2022-08-28T18:31:54.254Z,46.72
2022-08-28T18:36:46.129Z,47.03
2022-08-28T18:41:43.481Z,47.51
2022-08-28T18:46:36.136Z,48.42
2022-08-28T18:51:32.300Z,49.06
2022-08-28T18:56:23.917Z,49.57
2022-08-28T19:01:20.047Z,49.64
2022-08-28T19:06:13.322Z,50.18
2022-08-28T19:11:13.566Z,50.55
2022-08-28T19:16:05.933Z,50.83
2022-08-28T19:21:07.336Z,51.13
2022-08-28T19:25:59.087Z,51.33
2022-08-28T19:30:50.837Z,51.24
2022-08-28T19:35:43.291Z,51.24
2022-08-28T19:40:35.118Z,51.06
2022-08-28T19:45:27.358Z,51.33
2022-08-28T19:50:20.098Z,51.91
2022-08-28T19:55:21.980Z,51.97
2022-08-28T20:00:17.730Z,51.97
2022-08-28T20:05:10.561Z,52.29
2022-08-28T20:10:02.422Z,52.17
2022-08-28T20:14:54.240Z,52.12
2022-08-28T20:19:47.712Z,52.64
2022-08-28T20:24:39.548Z,53.04
2022-08-28T20:29:33.840Z,53.46
2022-08-28T20:34:26.211Z,53.66
2022-08-28T20:39:18.400Z,53.16
2022-08-28T20:44:12.969Z,53.29
2022-08-28T20:49:05.329Z,53.48
2022-08-28T20:53:57.136Z,53.69
2022-08-28T20:58:48.956Z,54.29
2022-08-28T21:03:40.728Z,54.34
2022-08-28T21:08:32.542Z,54.83
2022-08-28T21:13:24.243Z,54.60
2022-08-28T21:18:16.191Z,54.95
2022-08-28T21:23:08.396Z,54.83
2022-08-28T21:28:01.350Z,54.81
2022-08-28T21:32:56.428Z,55.57
2022-08-28T21:37:49.050Z,55.73
2022-08-28T21:42:41.146Z,55.37
2022-08-28T21:47:33.866Z,55.92
2022-08-28T21:52:28.985Z,56.34
2022-08-28T21:57:20.668Z,55.96
2022-08-28T22:02:12.521Z,55.90
2022-08-28T22:07:04.362Z,56.43
2022-08-28T22:11:56.132Z,56.82
2022-08-28T22:16:47.956Z,57.42
2022-08-28T22:21:58.541Z,57.14
2022-08-28T22:26:50.376Z,57.81
2022-08-28T22:31:49.480Z,58.05
2022-08-28T22:36:41.316Z,58.39
2022-08-28T22:41:33.107Z,59.41
2022-08-28T22:46:25.248Z,60.12
2022-08-28T22:51:18.686Z,60.66
2022-08-28T22:56:11.960Z,61.72
2022-08-28T23:01:11.635Z,62.00
2022-08-28T23:06:04.586Z,62.93
2022-08-28T23:10:59.270Z,63.59
2022-08-28T23:15:51.232Z,63.65
2022-08-28T23:20:43.582Z,64.20
2022-08-28T23:25:35.483Z,64.68
2022-08-28T23:30:27.617Z,65.14
2022-08-28T23:35:19.772Z,66.07
2022-08-28T23:40:16.086Z,66.53
2022-08-28T23:45:08.732Z,67.17
2022-08-28T23:50:00.617Z,67.85
2022-08-28T23:54:52.625Z,68.18
2022-08-28T23:59:44.289Z,68.98
